Flight Track Log - Related Links

Times and Time Zones

All times are in EDT time to prevent confusion due to time zone crossing. See the N929DE flight status page for this flight to view local times or setup timezone preferences in your user account.

Time Position Orientation Groundspeed Altitude Reporting Facility
EDT Latitude Longitude Course Direction KTS MPH feet Rate Location/Type
Wed 05:46:14 PM 42.6283 -92.4194 357° North 108 124 3,600  Level Chicago Center
Wed 05:47:17 PM 42.6694 -92.4206 359° North 116 133 4,700 912 Climbing Chicago Center
Wed 05:48:19 PM 42.7028 -92.4214 359° North 119 137 5,500 823 Climbing Chicago Center
Wed 05:49:21 PM 42.7389 -92.4228 358° North 123 142 6,400 726 Climbing Chicago Center
Wed 05:50:00 PM 43.0359 -92.4162 357° North  Level FlightAware Approximate
Wed 05:50:23 PM 42.7758 -92.4272 355° North 128 147 7,000  Level Chicago Center
Wed 05:51:00 PM 43.0837 -92.4200 357° North  Level FlightAware Approximate
Wed 05:51:25 PM 42.8158 -92.4297 357° North 135 155 7,500  Level Chicago Center
Wed 05:52:27 PM 42.8642 -92.4300 360° North 141 162 8,000 290 Climbing Chicago Center
Wed 05:53:29 PM 42.9047 -92.4350 355° North 144 166 8,100 48 Climbing Chicago Center
Wed 05:54:31 PM 42.9483 -92.4367 358° North 149 171 8,100  Level Chicago Center
Wed 05:55:33 PM 42.9933 -92.4364 360° North 155 178 8,100  Level Chicago Center
Wed 05:56:35 PM 43.0408 -92.4403 357° North 162 186 8,100  Level Minneapolis Center
Wed 05:57:37 PM 43.0778 -92.4411 359° North 165 190 8,100  Level Minneapolis Center
Wed 05:58:39 PM 43.1403 -92.4478 356° North 163 188 8,100  Level Minneapolis Center
Wed 05:59:41 PM 43.1861 -92.4478 360° North 164 189 8,100  Level Minneapolis Center
Wed 06:00:43 PM 43.2333 -92.4494 359° North 169 194 8,100  Level Minneapolis Center
Wed 06:01:45 PM 43.2881 -92.4508 359° North 173 199 8,100  Level Minneapolis Center
Wed 06:02:47 PM 43.3333 -92.4561 355° North 164 189 8,100  Level Minneapolis Center
Wed 06:03:50 PM 43.3822 -92.4564 360° North 166 191 8,100  Level Minneapolis Center
Wed 06:04:52 PM 43.4278 -92.4572 359° North 164 189 8,100  Level Minneapolis Center
Wed 06:05:54 PM 43.4775 -92.4628 355° North 169 194 8,100  Level Minneapolis Center
Wed 06:06:56 PM 43.5278 -92.4631 360° North 169 194 8,100  Level Minneapolis Center
Wed 06:07:57 PM 43.5661 -92.4644 358° North 168 193 8,100  Level Minneapolis Center
Wed 06:09:00 PM 43.6242 -92.4703 356° North 170 196 8,100  Level Minneapolis Center
Wed 06:10:02 PM 43.6711 -92.4736 357° North 170 196 8,100  Level Minneapolis Center
Wed 06:11:04 PM 43.7217 -92.4719 North 170 196 8,100  Level Minneapolis Center
Wed 06:12:06 PM 43.7686 -92.4736 359° North 171 197 8,100  Level Minneapolis Center
Wed 06:13:08 PM 43.8197 -92.4778 357° North 171 197 8,100  Level Minneapolis Center
Wed 06:14:10 PM 43.8653 -92.4839 354° North 168 193 8,100  Level Minneapolis Center
Wed 06:15:13 PM 43.9133 -92.4842 360° North 164 189 8,100  Level Minneapolis Center
Wed 06:16:15 PM 43.9622 -92.4839 360° North 167 192 8,100  Level Minneapolis Center
Wed 06:17:17 PM 44.0089 -92.4881 356° North 168 193 8,100  Level Minneapolis Center
Wed 06:18:19 PM 44.0594 -92.4900 358° North 171 197 8,100  Level Minneapolis Center
Wed 06:19:21 PM 44.1111 -92.4933 357° North 174 200 8,100  Level Minneapolis Center
Wed 06:20:23 PM 44.1583 -92.4953 358° North 170 196 8,100  Level Minneapolis Center
Wed 06:21:25 PM 44.2094 -92.4981 358° North 172 198 8,100  Level Minneapolis Center
Wed 06:22:27 PM 44.2567 -92.5006 358° North 171 197 8,100  Level Minneapolis Center
Wed 06:23:29 PM 44.3075 -92.5039 357° North 169 194 8,100  Level Minneapolis Center
Wed 06:24:31 PM 44.3525 -92.5053 359° North 172 198 8,100  Level Minneapolis Center
Wed 06:25:34 PM 44.4003 -92.5067 359° North 172 198 8,100  Level Minneapolis Center
Wed 06:26:36 PM 44.4483 -92.5083 359° North 173 199 8,100  Level Minneapolis Center
Wed 06:27:38 PM 44.5050 -92.5128 357° North 172 198 8,100  Level Minneapolis Center
Wed 06:28:40 PM 44.5519 -92.5167 357° North 170 196 8,100  Level Minneapolis Center
Wed 06:29:42 PM 44.6000 -92.5181 359° North 172 198 8,100  Level Minneapolis Center
Wed 06:30:44 PM 44.6467 -92.5167 North 170 196 8,100  Level Minneapolis Center
Wed 06:31:46 PM 44.6942 -92.5231 355° North 171 197 8,100 48 Level Minneapolis Center
Wed 06:32:48 PM 44.7517 -92.5250 359° North 173 199 8,200 48 Climbing Minneapolis Center
Wed 06:33:50 PM 44.7992 -92.5275 358° North 173 199 8,200  Level Minneapolis Center
Wed 06:34:53 PM 44.8464 -92.5297 358° North 171 197 8,200  Level Minneapolis Center
Wed 06:36:07 PM 44.8933 -92.5294 360° North 170 196 8,200  Level Minneapolis Center
Wed 06:37:09 PM 44.9492 -92.5367 355° North 169 194 8,200  Level Minneapolis Center
Wed 06:38:11 PM 45.0058 -92.5383 359° North 170 196 8,200  Level Minneapolis Center
Wed 06:39:13 PM 45.0533 -92.5392 359° North 171 197 8,200 -44 Level Minneapolis Center
Wed 06:40:28 PM 45.1108 -92.5436 357° North 173 199 8,100 -44 Descending Minneapolis Center
Wed 06:41:30 PM 45.1575 -92.5464 358° North 170 196 8,100  Level Minneapolis Center
Wed 06:42:32 PM 45.2133 -92.5469 360° North 167 192 8,100  Level Minneapolis Center
Wed 06:43:34 PM 45.2606 -92.5506 357° North 169 194 8,100  Level Minneapolis Center
Wed 06:44:36 PM 45.3083 -92.5522 359° North 173 199 8,100  Level Minneapolis Center
Wed 06:45:38 PM 45.3550 -92.5547 358° North 170 196 8,100  Level Minneapolis Center
Wed 06:46:41 PM 45.4028 -92.5578 357° North 172 198 8,100  Level Minneapolis Center
Wed 06:47:43 PM 45.4506 -92.5597 358° North 172 198 8,100  Level Minneapolis Center
Wed 06:48:45 PM 45.5064 -92.5628 358° North 170 196 8,100  Level Minneapolis Center
Wed 06:49:47 PM 45.5542 -92.5658 357° North 171 197 8,100  Level Minneapolis Center
Wed 06:50:49 PM 45.6000 -92.5681 358° North 168 193 8,100  Level Minneapolis Center
Wed 06:51:51 PM 45.6531 -92.5697 359° North 173 199 8,100  Level Minneapolis Center
Wed 06:52:53 PM 45.6947 -92.5714 358° North 169 194 8,100  Level Minneapolis Center
Wed 06:53:55 PM 45.7503 -92.5739 358° North 168 193 8,100  Level Minneapolis Center
Wed 06:54:57 PM 45.7961 -92.5769 357° North 167 192 8,100  Level Minneapolis Center
Wed 06:55:59 PM 45.8428 -92.5786 359° North 167 192 8,100  Level Minneapolis Center
Wed 06:57:01 PM 45.8889 -92.5817 357° North 166 191 8,100  Level Minneapolis Center
Wed 06:58:04 PM 45.9350 -92.5861 356° North 166 191 8,100  Level Minneapolis Center
Wed 06:59:06 PM 45.9808 -92.5889 358° North 166 191 8,100  Level Minneapolis Center
Wed 07:00:08 PM 46.0372 -92.5869 North 169 194 8,100  Level Minneapolis Center
Wed 07:01:10 PM 46.0831 -92.5925 355° North 166 191 8,100  Level Minneapolis Center
Wed 07:02:12 PM 46.1292 -92.5958 357° North 166 191 8,100  Level Minneapolis Center
Wed 07:03:14 PM 46.1753 -92.5958 360° North 166 191 8,100  Level Minneapolis Center
Wed 07:04:16 PM 46.2222 -92.6003 356° North 164 189 8,100  Level Minneapolis Center
Wed 07:05:18 PM 46.2683 -92.6039 357° North 166 191 8,100  Level Minneapolis Center
Wed 07:06:20 PM 46.3142 -92.6031 North 165 190 8,100  Level Minneapolis Center
Wed 07:07:23 PM 46.3689 -92.6067 357° North 166 191 8,100  Level Minneapolis Center
Wed 07:08:25 PM 46.4164 -92.6111 356° North 169 194 8,100  Level Minneapolis Center
Wed 07:09:27 PM 46.4625 -92.6125 359° North 168 193 8,100  Level Minneapolis Center
Wed 07:10:29 PM 46.5086 -92.6164 357° North 167 192 8,100  Level Minneapolis Center
Wed 07:11:31 PM 46.5564 -92.6175 359° North 169 194 8,100  Level Minneapolis Center
Wed 07:12:33 PM 46.6128 -92.6225 357° North 170 196 8,100  Level Minneapolis Center
Wed 07:13:35 PM 46.6589 -92.6233 359° North 169 194 8,100  Level Minneapolis Center
Wed 07:14:37 PM 46.7047 -92.6256 358° North 167 192 8,100  Level Minneapolis Center
Wed 07:15:39 PM 46.7497 -92.6292 357° North 165 190 8,100  Level Minneapolis Center
Wed 07:16:41 PM 46.7947 -92.6303 359° North 164 189 8,100  Level Minneapolis Center
Wed 07:17:43 PM 46.8414 -92.6325 358° North 165 190 8,100  Level Minneapolis Center
Wed 07:18:46 PM 46.8964 -92.6372 357° North 165 190 8,100  Level Minneapolis Center
Wed 07:19:48 PM 46.9425 -92.6394 358° North 166 191 8,100  Level Minneapolis Center
Wed 07:20:50 PM 46.9889 -92.6403 359° North 166 191 8,100  Level Minneapolis Center
Wed 07:21:52 PM 47.0361 -92.6444 357° North 168 193 8,100  Level Minneapolis Center
Wed 07:22:54 PM 47.0836 -92.6458 359° North 170 196 8,100  Level Minneapolis Center
Wed 07:23:56 PM 47.1397 -92.6483 358° North 169 194 8,100  Level Minneapolis Center
Wed 07:24:58 PM 47.1850 -92.6528 356° North 168 193 8,100  Level Minneapolis Center
Wed 07:26:00 PM 47.2308 -92.6550 358° North 167 192 8,100 -242 Level Minneapolis Center
Wed 07:27:02 PM 47.2789 -92.6556 360° North 168 193 7,600 -484 Descending Minneapolis Center
Wed 07:28:04 PM 47.3303 -92.6589 357° North 176 203 7,100 -726 Descending Minneapolis Center
Wed 07:29:06 PM 47.3947 -92.6642 357° North 186 214 6,100 -864 Descending Minneapolis Center
Wed 07:30:09 PM 47.4503 -92.6675 358° North 194 223 5,300 -762 Descending Minneapolis Center
Wed 07:32:00 PM 47.5356 -92.6671 North  Level FlightAware Approximate
Wed 07:39:00 PM 47.8167 -92.6833 North  Level FlightAware Approximate
Wed 07:40:00 PM 47.8221 -92.6905 North  Level Estimated
Wed 07:41:00 PM 47.8221 -92.6905 North  Level Estimated
Wed 07:42:00 PM 47.8221 -92.6905 North  Level Estimated

Login

Don't have an account? Register now (free) for customized features, flight alerts, and more!